ENHD/HAU METAR and TAF weather

Enter ICAO airport designator
Station Type Date Time Source
ENHD METAR 2019/12/13 22:20 UTC NOAA

ENHD 132220Z AUTO 15013KT 9999 NCD 05/M01 Q0978


Station Type Date Time Source
ENHD Decoded METAR 2019/12/13 22:20 UTC NOAA

Haugesund / Karmoy, Norway (ENHD) 59-21N 005-13E 24M
Dec 13, 2019 - 05:20 PM EST / 2019.12.13 2220 UTC
Wind: from the SSE (150 degrees) at 15 MPH (13 KT):0
Visibility: greater than 7 mile(s):0
Temperature: 41 F (5 C)
Dew Point: 30 F (-1 C)
Relative Humidity: 65%
Pressure (altimeter): 28.88 in. Hg (0978 hPa)
ob: ENHD 132220Z AUTO 15013KT 9999 NCD 05/M01 Q0978
cycle: 22

Station Type Date Time Source
ENHD TAF UTC NOAA

Error!

Example: see airport list